Time;durP1;ratioP1;P1;durP2;ratioP2;P2;SDS_P1;SDS_P2;PMS_P1;PMS_P2;Temp;Humidity;BMP_temperature;BMP_pressure;BME280_temperature;BME280_humidity;BME280_pressure;Samples;Min_cycle;Max_cycle;Signal;HPM_P1;HPM_P2
2021/12/13 00:01:46;;;;;;;2.30;2.08;;;;;;;9.70;100.00;102552.75;4939619;29;20040;-90
2021/12/13 00:04:20;;;;;;;1.60;1.23;;;;;;;9.68;100.00;102545.69;4951575;29;20059;-91
2021/12/13 00:06:59;;;;;;;2.13;0.70;;;;;;;9.77;100.00;102537.63;4956726;28;20031;-91
2021/12/13 00:09:30;;;;;;;1.23;1.00;;;;;;;9.64;100.00;102536.03;4941668;29;20445;-90
2021/12/13 00:12:06;;;;;;;1.20;0.93;;;;;;;9.74;100.00;102533.22;4940710;29;20036;-90
2021/12/13 00:14:47;;;;;;;3.22;1.70;;;;;;;9.70;100.00;102538.59;4941347;29;20020;-90
2021/12/13 00:17:43;;;;;;;1.00;0.80;;;;;;;9.57;100.00;102539.63;4940650;29;20086;-90
2021/12/13 00:20:27;;;;;;;0.47;0.47;;;;;;;9.67;100.00;102536.88;4924280;29;20042;-90
2021/12/13 00:23:09;;;;;;;6.30;1.35;;;;;;;9.59;100.00;102536.06;4942107;29;20055;-90
2021/12/13 00:25:39;;;;;;;0.65;0.60;;;;;;;9.54;100.00;102529.94;4941326;28;20074;-90
2021/12/13 00:28:15;;;;;;;1.35;1.00;;;;;;;9.61;100.00;102533.41;4941419;29;20022;-90
2021/12/13 00:31:16;;;;;;;0.73;0.50;;;;;;;9.57;100.00;102535.22;4948156;29;20023;-90
2021/12/13 00:33:54;;;;;;;0.75;0.60;;;;;;;9.59;100.00;102530.78;4954991;29;20052;-89
2021/12/13 00:36:29;;;;;;;0.85;0.65;;;;;;;9.56;100.00;102536.13;4956619;29;20063;-91
2021/12/13 00:39:20;;;;;;;3.50;0.57;;;;;;;9.52;100.00;102534.38;4950494;29;20038;-91
2021/12/13 00:41:48;;;;;;;1.88;1.20;;;;;;;9.42;100.00;102521.25;4942813;29;20140;-90
2021/12/13 00:44:22;;;;;;;1.25;0.45;;;;;;;9.48;100.00;102542.38;4944672;29;20050;-91
2021/12/13 00:46:51;;;;;;;0.40;0.40;;;;;;;9.48;100.00;102529.13;4961520;29;20366;-90
2021/12/13 00:49:26;;;;;;;0.40;0.40;;;;;;;9.41;100.00;102535.41;4965926;29;20027;-90
2021/12/13 00:52:08;;;;;;;0.50;0.50;;;;;;;9.40;100.00;102533.63;4962681;28;20055;-89
2021/12/13 00:54:38;;;;;;;0.38;0.35;;;;;;;9.32;100.00;102534.63;4960871;29;20019;-89
2021/12/13 00:57:48;;;;;;;0.68;0.68;;;;;;;9.31;100.00;102540.78;4960778;29;20037;-89
2021/12/13 01:00:25;;;;;;;0.40;0.40;;;;;;;9.37;100.00;102536.31;4915804;29;20039;-89
2021/12/13 01:03:36;;;;;;;1.05;0.60;;;;;;;9.55;100.00;102542.31;4963776;29;20035;-90
2021/12/13 01:06:46;;;;;;;0.30;0.30;;;;;;;9.49;100.00;102544.13;4941149;29;20051;-91
2021/12/13 01:09:59;;;;;;;2.60;0.40;;;;;;;9.55;100.00;102544.09;4948436;29;20039;-90
2021/12/13 01:12:26;;;;;;;0.30;0.30;;;;;;;9.41;100.00;102546.03;4959316;28;20024;-90
2021/12/13 01:15:13;;;;;;;0.82;0.80;;;;;;;9.38;100.00;102549.56;4960022;28;20024;-90
2021/12/13 01:17:56;;;;;;;0.73;0.65;;;;;;;9.44;100.00;102546.84;4950226;29;20081;-91
2021/12/13 01:23:38;;;;;;;0.40;0.40;;;;;;;9.27;100.00;102555.00;4941538;29;20047;-90
2021/12/13 01:28:47;;;;;;;0.38;0.38;;;;;;;9.40;100.00;102544.25;4943726;29;20120;-90
2021/12/13 01:31:20;;;;;;;2.03;0.68;;;;;;;9.25;100.00;102542.63;4945110;29;20026;-90
2021/12/13 01:34:06;;;;;;;1.30;0.60;;;;;;;9.23;100.00;102555.03;4945451;28;20154;-90
2021/12/13 01:36:56;;;;;;;0.40;0.40;;;;;;;9.22;100.00;102554.16;4959564;29;20482;-90
2021/12/13 01:39:28;;;;;;;0.60;0.60;;;;;;;9.22;100.00;102561.22;4956108;29;20117;-91
2021/12/13 01:42:03;;;;;;;1.00;0.50;;;;;;;9.15;100.00;102554.25;4958777;29;20126;-90
2021/12/13 01:44:34;;;;;;;0.60;0.60;;;;;;;9.11;100.00;102557.78;4958613;29;20083;-90
2021/12/13 01:47:12;;;;;;;1.42;1.33;;;;;;;9.21;100.00;102565.66;4959440;29;20031;-90
2021/12/13 01:49:42;;;;;;;0.80;0.70;;;;;;;9.28;100.00;102562.03;4945798;29;20055;-91
2021/12/13 01:52:28;;;;;;;1.75;0.75;;;;;;;9.32;100.00;102566.44;4939163;29;20395;-90
2021/12/13 01:55:00;;;;;;;1.13;0.75;;;;;;;9.25;100.00;102562.06;4939854;29;20116;-90
2021/12/13 01:57:41;;;;;;;2.35;1.52;;;;;;;9.21;100.00;102565.66;4942603;29;20039;-89
2021/12/13 02:00:18;;;;;;;1.17;1.10;;;;;;;9.21;100.00;102570.06;4941797;29;20023;-91
2021/12/13 02:02:47;;;;;;;0.85;0.75;;;;;;;9.20;100.00;102569.19;4945699;29;20028;-90
2021/12/13 02:05:17;;;;;;;2.72;2.08;;;;;;;9.18;100.00;102565.69;4952292;29;20030;-90
2021/12/13 02:07:53;;;;;;;2.00;1.45;;;;;;;9.17;100.00;102563.06;4933070;29;20024;-90
2021/12/13 02:10:30;;;;;;;2.90;1.60;;;;;;;9.17;100.00;102566.56;4920908;29;20028;-89
2021/12/13 02:13:02;;;;;;;3.72;1.80;;;;;;;9.19;100.00;102566.56;4920069;29;20537;-90
2021/12/13 02:18:19;;;;;;;2.15;1.73;;;;;;;9.11;100.00;102563.97;4933160;29;20038;-90
2021/12/13 02:20:52;;;;;;;2.05;1.65;;;;;;;9.09;100.00;102565.75;4958128;28;20534;-89
2021/12/13 02:23:20;;;;;;;1.15;1.02;;;;;;;9.07;100.00;102567.56;4957860;28;20034;-90
2021/12/13 02:25:50;;;;;;;2.13;1.60;;;;;;;9.20;100.00;102569.19;4958644;29;20031;-90
2021/12/13 02:28:21;;;;;;;2.65;1.92;;;;;;;9.25;100.00;102570.03;4958342;29;20188;-89
2021/12/13 02:30:59;;;;;;;2.25;1.40;;;;;;;9.19;100.00;102578.03;4958288;29;20090;-89
2021/12/13 02:33:34;;;;;;;3.22;2.25;;;;;;;9.25;100.00;102575.34;4949411;29;20060;-90
2021/12/13 02:36:16;;;;;;;2.30;1.88;;;;;;;9.25;100.00;102583.28;4948863;29;20048;-89
2021/12/13 02:38:46;;;;;;;1.35;1.00;;;;;;;9.19;100.00;102575.41;4949382;28;20032;-89
2021/12/13 02:41:19;;;;;;;2.67;1.55;;;;;;;9.17;100.00;102571.88;4941813;29;20464;-89
2021/12/13 02:43:47;;;;;;;1.77;1.67;;;;;;;9.20;100.00;102581.59;4958614;29;20027;-90
2021/12/13 02:47:00;;;;;;;4.82;2.20;;;;;;;9.31;100.00;102575.25;4959263;28;20059;-90
2021/12/13 02:49:39;;;;;;;2.70;1.63;;;;;;;9.26;100.00;102565.63;4953357;28;20044;-90
2021/12/13 02:52:11;;;;;;;2.58;1.77;;;;;;;9.29;100.00;102568.22;4938902;29;20039;-89
2021/12/13 02:54:43;;;;;;;2.35;1.95;;;;;;;9.32;100.00;102570.84;4938715;29;20031;-90
2021/12/13 02:57:26;;;;;;;3.30;2.33;;;;;;;9.26;100.00;102563.81;4933127;29;20548;-89
2021/12/13 02:59:59;;;;;;;3.15;1.70;;;;;;;9.44;100.00;102572.50;4923290;29;20490;-89
2021/12/13 03:02:38;;;;;;;2.45;1.20;;;;;;;9.48;100.00;102566.25;4938141;29;20083;-89
2021/12/13 03:05:11;;;;;;;;;;;;;;;9.38;100.00;102562.81;4928383;29;20425;-90
2021/12/13 03:07:42;;;;;;;9.32;3.50;;;;;;;9.41;100.00;102564.59;4917251;29;19910;-91
2021/12/13 03:10:39;;;;;;;1.77;1.23;;;;;;;9.30;100.00;102557.59;4924636;29;20103;-90
2021/12/13 03:13:10;;;;;;;1.65;1.55;;;;;;;9.29;100.00;102561.16;4931945;29;20082;-90
2021/12/13 03:15:38;;;;;;;3.40;1.90;;;;;;;9.36;100.00;102558.44;4938286;29;20499;-90
2021/12/13 03:18:21;;;;;;;4.18;1.90;;;;;;;9.28;100.00;102547.94;4937608;29;20059;-90
2021/12/13 03:20:53;;;;;;;1.48;1.10;;;;;;;9.34;100.00;102561.13;4938326;29;20024;-89
2021/12/13 03:23:44;;;;;;;2.55;1.60;;;;;;;9.30;100.00;102556.72;4938316;29;20357;-90
2021/12/13 03:26:47;;;;;;;2.28;1.85;;;;;;;9.30;100.00;102562.03;4938144;29;20114;-89
2021/12/13 03:29:26;;;;;;;2.50;2.08;;;;;;;9.34;100.00;102558.47;4938518;28;20036;-89
2021/12/13 03:31:56;;;;;;;1.65;1.30;;;;;;;9.36;100.00;102551.34;4935184;29;20031;-91
2021/12/13 03:34:30;;;;;;;1.20;1.08;;;;;;;9.32;100.00;102555.84;4938083;29;20111;-90
2021/12/13 03:37:03;;;;;;;4.55;1.95;;;;;;;9.33;100.00;102560.22;4940884;29;20031;-92
2021/12/13 03:39:38;;;;;;;1.60;1.50;;;;;;;9.27;100.00;102559.41;4941773;29;20036;-91
2021/12/13 03:42:12;;;;;;;1.92;1.40;;;;;;;9.36;100.00;102566.41;4942363;29;20035;-91
2021/12/13 03:44:50;;;;;;;1.23;1.13;;;;;;;9.35;100.00;102557.56;4938612;29;20051;-91
2021/12/13 03:47:36;;;;;;;2.55;2.20;;;;;;;9.25;100.00;102551.47;4941494;29;20032;-91
2021/12/13 03:50:19;;;;;;;1.80;1.38;;;;;;;9.29;100.00;102539.97;4942055;29;20039;-91
2021/12/13 03:52:54;;;;;;;2.78;1.42;;;;;;;9.27;100.00;102544.38;4942252;29;20153;-91
2021/12/13 03:55:25;;;;;;;1.33;1.17;;;;;;;9.25;100.00;102545.28;4941640;29;20033;-91
2021/12/13 03:57:58;;;;;;;3.10;2.15;;;;;;;9.36;100.00;102547.84;4941695;29;20027;-90
2021/12/13 04:00:29;;;;;;;0.82;0.80;;;;;;;9.40;100.00;102549.56;4941649;29;20024;-90
2021/12/13 04:03:13;;;;;;;1.42;1.33;;;;;;;9.34;100.00;102545.22;4946784;29;20099;-90
2021/12/13 04:05:40;;;;;;;1.52;1.05;;;;;;;9.33;100.00;102546.97;4961828;28;20055;-91
2021/12/13 04:08:08;;;;;;;2.38;1.52;;;;;;;9.21;100.00;102544.47;4948425;28;20032;-90
2021/12/13 04:10:51;;;;;;;1.55;0.95;;;;;;;9.23;100.00;102539.13;4946778;29;20028;-90
2021/12/13 04:13:33;;;;;;;3.67;1.13;;;;;;;9.31;100.00;102540.78;4944895;29;20028;-90
2021/12/13 04:21:14;;;;;;;1.17;0.93;;;;;;;9.27;100.00;102547.03;4961926;29;20032;-91
2021/12/13 04:23:55;;;;;;;1.77;0.98;;;;;;;9.33;100.00;102538.13;4947193;29;20024;-89
2021/12/13 04:26:23;;;;;;;2.38;1.85;;;;;;;9.21;100.00;102539.16;4943347;29;20115;-90
2021/12/13 04:28:53;;;;;;;1.75;1.65;;;;;;;9.20;100.00;102542.69;4942949;29;20028;-90
2021/12/13 04:31:31;;;;;;;2.00;1.08;;;;;;;9.25;100.00;102539.97;4941381;29;20082;-89
2021/12/13 04:34:00;;;;;;;2.50;1.17;;;;;;;9.31;100.00;102535.50;4940604;29;20064;-90
2021/12/13 04:36:57;;;;;;;2.13;1.00;;;;;;;9.30;100.00;102538.16;4940997;29;20546;-90
2021/12/13 04:39:48;;;;;;;1.20;1.10;;;;;;;9.22;100.00;102546.19;4937110;29;20039;-90
2021/12/13 04:42:20;;;;;;;1.73;0.98;;;;;;;9.37;100.00;102549.59;4911628;29;20051;-90
2021/12/13 04:45:15;;;;;;;1.58;1.33;;;;;;;9.26;100.00;102550.56;4941077;29;20058;-90
2021/12/13 04:48:01;;;;;;;3.10;1.50;;;;;;;9.31;100.00;102543.44;4940025;29;20038;-90
2021/12/13 04:50:50;;;;;;;1.70;1.60;;;;;;;9.22;100.00;102546.19;4939463;29;20028;-89
2021/12/13 04:53:44;;;;;;;1.93;0.60;;;;;;;9.17;100.00;102544.50;4940094;29;20044;-90
2021/12/13 04:56:15;;;;;;;1.52;1.30;;;;;;;9.41;100.00;102540.72;4937495;29;20484;-90
2021/12/13 04:58:47;;;;;;;1.35;1.25;;;;;;;9.29;100.00;102531.13;4941123;29;20137;-90
2021/12/13 05:01:15;;;;;;;8.27;1.40;;;;;;;9.31;100.00;102537.28;4940511;29;20079;-90
2021/12/13 05:03:44;;;;;;;1.48;1.38;;;;;;;9.27;100.00;102541.75;4940904;29;20498;-90
2021/12/13 05:06:32;;;;;;;1.75;1.27;;;;;;;9.19;100.00;102540.03;4940657;29;20340;-89
2021/12/13 05:09:05;;;;;;;2.20;1.73;;;;;;;9.23;100.00;102542.66;4922259;29;20032;-90
2021/12/13 05:12:28;;;;;;;2.65;2.03;;;;;;;9.14;100.00;102540.09;4921962;29;20035;-91
2021/12/13 05:15:39;;;;;;;1.30;0.82;;;;;;;9.23;100.00;102547.09;4912580;29;20044;-91
2021/12/13 05:18:08;;;;;;;1.15;1.05;;;;;;;9.25;100.00;102550.59;4921839;29;20031;-91
2021/12/13 05:20:37;;;;;;;;;;;;;;;9.17;100.00;102560.41;4923389;29;20095;-90
2021/12/13 05:23:21;;;;;;;1.17;1.08;;;;;;;9.14;100.00;102557.75;4922357;29;19919;-90
2021/12/13 05:26:03;;;;;;;6.05;1.70;;;;;;;9.20;100.00;102553.28;4924275;29;20035;-90
2021/12/13 05:28:44;;;;;;;1.02;0.90;;;;;;;9.21;100.00;102554.16;4924254;29;20031;-90
2021/12/13 05:31:23;;;;;;;1.70;1.27;;;;;;;9.16;100.00;102551.56;4928479;29;20027;-89
2021/12/13 05:33:53;;;;;;;5.57;1.63;;;;;;;9.20;100.00;102553.28;4929664;29;20038;-90
2021/12/13 05:36:23;;;;;;;1.02;0.80;;;;;;;9.20;100.00;102547.97;4926054;29;20099;-90
2021/12/13 05:39:09;;;;;;;2.97;1.10;;;;;;;9.29;100.00;102541.72;4947581;29;20028;-90
2021/12/13 05:41:40;;;;;;;1.90;1.67;;;;;;;9.20;100.00;102539.16;4950194;29;20056;-90
2021/12/13 05:44:22;;;;;;;1.60;0.98;;;;;;;9.23;100.00;102534.69;4952746;29;20035;-89
2021/12/13 05:46:56;;;;;;;2.40;0.95;;;;;;;9.32;100.00;102541.69;4969156;29;20082;-92
2021/12/13 05:49:30;;;;;;;2.97;0.90;;;;;;;9.30;100.00;102536.41;4966746;29;20031;-91
2021/12/13 05:52:21;;;;;;;2.40;1.27;;;;;;;9.30;100.00;102543.47;4970236;29;20043;-90
2021/12/13 05:55:01;;;;;;;0.88;0.85;;;;;;;9.14;100.00;102542.75;4979440;28;20031;-89
2021/12/13 05:57:48;;;;;;;2.38;1.40;;;;;;;9.21;100.00;102551.53;4925438;29;20066;-90
2021/12/13 06:00:34;;;;;;;1.77;1.38;;;;;;;9.30;100.00;102548.75;4925499;29;20087;-93
2021/12/13 06:06:24;;;;;;;1.33;1.23;;;;;;;9.36;100.00;102545.19;4901006;29;20045;-93
2021/12/13 06:08:55;;;;;;;1.95;1.30;;;;;;;9.23;100.00;102542.66;4884098;29;20161;-92
2021/12/13 06:11:33;;;;;;;2.15;0.82;;;;;;;9.29;100.00;102545.25;4888455;29;20037;-90
2021/12/13 06:14:35;;;;;;;1.15;1.00;;;;;;;9.26;100.00;102537.31;4923250;29;20043;-91
2021/12/13 06:17:32;;;;;;;3.60;1.77;;;;;;;9.31;100.00;102540.78;4957951;29;20024;-92
2021/12/13 06:23:38;;;;;;;1.10;0.95;;;;;;;9.22;100.00;102556.81;4945207;29;20066;-91
2021/12/13 06:26:38;;;;;;;1.60;1.25;;;;;;;9.31;100.00;102556.69;4944149;29;20043;-92
2021/12/13 06:29:08;;;;;;;1.30;0.98;;;;;;;9.26;100.00;102550.56;4940483;29;20034;-90
2021/12/13 06:31:46;;;;;;;3.38;1.70;;;;;;;9.21;100.00;102557.72;4939599;29;20099;-92
2021/12/13 06:34:27;;;;;;;1.40;1.17;;;;;;;9.22;100.00;102556.81;4939089;29;20045;-87
2021/12/13 06:37:06;;;;;;;2.88;1.52;;;;;;;9.20;100.00;102544.47;4923077;29;20143;-92
2021/12/13 06:39:33;;;;;;;1.73;1.48;;;;;;;9.30;100.00;102559.38;4921005;29;20361;-90
2021/12/13 06:42:14;;;;;;;11.43;2.53;;;;;;;9.24;100.00;102554.13;4937384;29;20467;-89
2021/12/13 06:44:59;;;;;;;3.83;1.73;;;;;;;9.22;100.00;102561.22;4938992;29;20055;-89
2021/12/13 06:47:24;;;;;;;2.22;1.65;;;;;;;9.20;100.00;102557.72;4939776;29;20042;-89
2021/12/13 06:53:32;;;;;;;1.98;1.63;;;;;;;9.14;100.00;102568.38;4923678;29;20428;-89
2021/12/13 06:56:18;;;;;;;1.73;1.05;;;;;;;9.07;100.00;102564.91;4939460;29;20016;-89
2021/12/13 06:58:53;;;;;;;1.98;1.60;;;;;;;9.24;100.00;102575.34;4939601;29;20023;-88
2021/12/13 07:01:40;;;;;;;3.28;2.75;;;;;;;9.28;100.00;102577.94;4939854;29;20012;-88
2021/12/13 17:20:44;;;;;;;2.88;1.42;;;;;;;8.86;100.00;102697.56;5218823;23;20075;-82
2021/12/13 17:24:06;;;;;;;2.50;1.50;;;;;;;8.88;100.00;102698.44;4936349;29;20032;-82
2021/12/13 17:26:54;;;;;;;2.28;1.08;;;;;;;8.94;100.00;102702.81;4927219;29;20082;-83
2021/12/13 17:29:46;;;;;;;2.05;1.13;;;;;;;8.97;100.00;102697.50;4941765;29;20055;-84
2021/12/13 17:32:20;;;;;;;3.80;2.20;;;;;;;8.93;100.00;102701.06;4937183;29;20043;-88
2021/12/13 17:34:51;;;;;;;3.30;1.55;;;;;;;8.93;100.00;102695.78;4936804;29;20050;-85
2021/12/13 17:37:26;;;;;;;2.40;2.20;;;;;;;8.95;100.00;102694.00;4936367;29;20078;-82
2021/12/13 17:40:25;;;;;;;1.67;1.52;;;;;;;8.83;100.00;102688.75;4930318;29;20024;-83
2021/12/13 17:43:00;;;;;;;1.65;1.27;;;;;;;8.77;100.00;102673.78;4928115;29;20122;-85
2021/12/13 17:45:46;;;;;;;2.80;1.60;;;;;;;8.84;100.00;102674.63;4936141;29;20027;-82
2021/12/13 17:48:36;;;;;;;3.65;1.73;;;;;;;8.77;100.00;102681.75;4916503;29;20107;-82
2021/12/13 17:51:04;;;;;;;1.80;1.70;;;;;;;8.75;100.00;102679.97;4916422;29;20036;-83
2021/12/13 17:54:02;;;;;;;1.90;1.70;;;;;;;8.84;100.00;102695.84;4954812;23;20566;-85
2021/12/13 18:00:00;;;;;;;2.47;1.38;;;;;;;8.82;100.00;102685.25;4956702;29;20101;-84
2021/12/13 18:02:27;;;;;;;1.50;1.15;;;;;;;8.95;100.00;102684.25;4939261;29;20035;-90
2021/12/13 18:05:14;;;;;;;1.45;1.17;;;;;;;8.82;100.00;102685.25;4950232;29;20031;-84
2021/12/13 18:08:04;;;;;;;2.60;2.17;;;;;;;8.84;100.00;102686.09;4936387;29;20039;-84
2021/12/13 18:10:50;;;;;;;2.28;1.35;;;;;;;8.86;100.00;102699.34;4952970;29;20046;-83
2021/12/13 18:14:00;;;;;;;2.90;1.52;;;;;;;8.75;100.00;102686.16;4953975;29;20071;-86
2021/12/13 18:16:54;;;;;;;2.42;2.08;;;;;;;8.72;100.00;102694.13;4955450;29;20067;-85
2021/12/13 18:19:38;;;;;;;4.03;1.95;;;;;;;8.63;100.00;102685.34;4954488;29;20402;-82
2021/12/13 18:22:23;;;;;;;3.22;1.73;;;;;;;8.82;100.00;102693.19;4952384;29;20471;-84
2021/12/13 18:24:54;;;;;;;3.35;1.80;;;;;;;8.68;100.00;102695.00;4934532;29;20031;-85
2021/12/13 18:27:57;;;;;;;2.20;1.48;;;;;;;8.76;100.00;102692.34;4947656;23;20044;-82
2021/12/13 18:30:33;;;;;;;1.05;1.00;;;;;;;8.67;100.00;102695.91;4872738;29;20052;-84
2021/12/13 18:33:32;;;;;;;1.50;1.17;;;;;;;8.77;100.00;102694.09;4866579;29;20421;-84
2021/12/13 18:36:09;;;;;;;2.33;1.70;;;;;;;8.66;100.00;102702.13;4858779;29;20481;-80
2021/12/13 18:39:00;;;;;;;2.78;1.95;;;;;;;8.69;100.00;102701.19;4865516;29;20033;-83
2021/12/13 18:41:46;;;;;;;2.50;1.70;;;;;;;8.68;100.00;102700.31;4827074;29;20119;-82
2021/12/13 18:44:31;;;;;;;1.95;1.73;;;;;;;8.73;100.00;102703.81;4877720;29;20029;-82
2021/12/13 18:47:06;;;;;;;2.33;2.13;;;;;;;8.76;100.00;102697.66;4903711;29;20136;-82
2021/12/13 18:50:07;;;;;;;3.58;2.78;;;;;;;8.70;100.00;102695.91;4900001;29;20040;-82
2021/12/13 18:52:42;;;;;;;3.25;1.55;;;;;;;8.73;100.00;102709.13;4893173;29;20449;-81
2021/12/13 18:55:35;;;;;;;1.50;1.38;;;;;;;8.69;100.00;102701.19;4918571;29;20488;-84
2021/12/13 18:58:47;;;;;;;1.92;1.60;;;;;;;8.80;100.00;102708.22;4932986;29;20118;-82
2021/12/13 21:53:59;;;;;;;3.47;2.40;;;;;;;8.53;100.00;102713.66;5598687;23;20971;-81
2021/12/13 21:56:49;;;;;;;4.07;1.95;;;;;;;8.43;100.00;102714.56;4915936;29;20032;-80
2021/12/13 21:59:24;;;;;;;1.88;1.65;;;;;;;8.57;100.00;102727.75;4906280;29;20032;-81
2021/12/13 22:01:54;;;;;;;3.70;2.22;;;;;;;8.49;100.00;102724.25;4913325;29;20124;-80
2021/12/13 22:04:51;;;;;;;2.03;1.70;;;;;;;8.47;100.00;102726.91;4911739;29;20028;-81
